createdAt,value
2018-07-05T00:01:38.907Z,16.10
2018-07-05T00:06:52.120Z,16.10
2018-07-05T00:09:31.732Z,16.10
2018-07-05T00:12:11.559Z,16.10
2018-07-05T00:14:51.047Z,16.20
2018-07-05T00:17:30.650Z,16.20
2018-07-05T00:20:10.308Z,16.20
2018-07-05T00:22:49.900Z,16.10
2018-07-05T00:25:29.542Z,16.00
2018-07-05T00:28:09.042Z,16.00
2018-07-05T00:30:48.612Z,16.00
2018-07-05T00:33:28.142Z,16.00
2018-07-05T00:36:07.743Z,15.90
2018-07-05T00:38:47.365Z,15.90
2018-07-05T00:41:27.092Z,15.90
2018-07-05T00:44:06.604Z,15.80
2018-07-05T00:46:46.114Z,15.80
2018-07-05T00:49:25.747Z,15.80
2018-07-05T00:52:05.522Z,15.80
2018-07-05T00:54:45.111Z,15.70
2018-07-05T00:57:24.650Z,15.70
2018-07-05T01:00:04.171Z,15.60
2018-07-05T01:02:43.688Z,15.60
2018-07-05T01:05:23.211Z,15.60
2018-07-05T01:08:02.912Z,15.60
2018-07-05T01:10:42.377Z,15.50
2018-07-05T01:13:21.895Z,15.50
2018-07-05T01:16:01.386Z,15.50
2018-07-05T01:18:40.874Z,15.40
2018-07-05T01:21:20.493Z,15.40
2018-07-05T01:24:00.040Z,15.40
2018-07-05T01:26:39.709Z,15.30
2018-07-05T01:29:19.301Z,15.30
2018-07-05T01:31:58.817Z,15.40
2018-07-05T01:34:38.212Z,15.40
2018-07-05T01:37:17.681Z,15.50
2018-07-05T01:39:57.176Z,15.50
2018-07-05T01:42:36.646Z,15.40
2018-07-05T01:45:16.197Z,15.40
2018-07-05T01:47:55.932Z,15.40
2018-07-05T01:50:35.456Z,15.30
2018-07-05T01:53:15.012Z,15.30
2018-07-05T01:55:54.751Z,15.30
2018-07-05T01:58:34.418Z,15.30
2018-07-05T02:01:14.072Z,15.40
2018-07-05T02:03:53.583Z,15.40
2018-07-05T02:06:33.105Z,15.40
2018-07-05T02:09:12.738Z,15.40
2018-07-05T02:11:52.270Z,15.40
2018-07-05T02:14:31.836Z,15.40
2018-07-05T02:17:11.411Z,15.40
2018-07-05T02:22:24.607Z,15.50
2018-07-05T02:25:04.033Z,15.50
2018-07-05T02:27:44.505Z,15.50
2018-07-05T02:30:24.052Z,15.40
2018-07-05T02:33:03.432Z,15.40
2018-07-05T02:35:42.950Z,15.30
2018-07-05T02:38:22.503Z,15.30
2018-07-05T02:41:02.413Z,15.30
2018-07-05T02:43:42.139Z,15.30
2018-07-05T02:46:21.671Z,15.30
2018-07-05T02:49:01.252Z,15.30
2018-07-05T02:51:41.020Z,15.30
2018-07-05T02:54:20.615Z,15.40
2018-07-05T02:57:00.216Z,15.30
2018-07-05T02:59:39.894Z,15.30
2018-07-05T03:02:19.487Z,15.40
2018-07-05T03:04:59.108Z,15.40
2018-07-05T03:10:12.138Z,15.50
2018-07-05T03:12:51.675Z,15.60
2018-07-05T03:15:33.488Z,15.60
2018-07-05T03:18:13.168Z,15.70
2018-07-05T03:20:52.870Z,15.80
2018-07-05T03:23:32.533Z,15.90
2018-07-05T03:26:12.243Z,16.00
2018-07-05T03:28:52.771Z,16.10
2018-07-05T03:31:33.502Z,16.20
2018-07-05T03:34:12.944Z,16.20
2018-07-05T03:36:53.539Z,16.30
2018-07-05T03:39:33.229Z,16.40
2018-07-05T03:42:12.824Z,16.50
2018-07-05T03:44:52.532Z,16.60
2018-07-05T03:47:32.105Z,16.70
2018-07-05T03:50:11.714Z,16.80
2018-07-05T03:52:51.287Z,17.00
2018-07-05T03:55:30.951Z,17.10
2018-07-05T03:58:10.505Z,17.20
2018-07-05T04:00:49.966Z,17.30
2018-07-05T04:03:29.371Z,17.30
2018-07-05T04:06:10.063Z,17.40
2018-07-05T04:08:49.671Z,17.40
2018-07-05T04:11:29.231Z,17.50
2018-07-05T04:14:08.750Z,17.60
2018-07-05T04:16:48.361Z,17.70
2018-07-05T04:19:28.042Z,17.70
2018-07-05T04:22:07.634Z,17.70
2018-07-05T04:24:47.414Z,17.70
2018-07-05T04:27:27.084Z,17.70
2018-07-05T04:30:06.706Z,17.80
2018-07-05T04:32:46.152Z,17.90
2018-07-05T04:37:59.116Z,18.10
2018-07-05T04:40:38.779Z,18.20
2018-07-05T04:43:18.643Z,18.30
2018-07-05T04:45:58.063Z,18.40
2018-07-05T04:48:37.513Z,18.50
2018-07-05T04:51:17.050Z,18.60
2018-07-05T04:53:56.715Z,18.70
2018-07-05T04:56:36.344Z,18.80
2018-07-05T04:59:16.007Z,19.00
2018-07-05T05:01:55.623Z,19.10
2018-07-05T05:04:35.300Z,19.20
2018-07-05T05:09:48.592Z,19.70
2018-07-05T05:12:28.157Z,20.00
2018-07-05T05:15:08.115Z,20.10
2018-07-05T05:17:47.875Z,20.10
2018-07-05T05:25:34.670Z,20.10
2018-07-05T05:28:14.249Z,20.20
2018-07-05T05:33:27.508Z,20.80
2018-07-05T05:36:06.972Z,21.00
2018-07-05T05:38:46.433Z,21.00
2018-07-05T05:41:25.938Z,21.10
2018-07-05T05:44:05.630Z,21.10
2018-07-05T05:46:45.153Z,21.30
2018-07-05T05:49:24.631Z,21.50
2018-07-05T05:52:04.162Z,21.70
2018-07-05T05:54:43.675Z,21.90
2018-07-05T05:57:23.341Z,22.10
2018-07-05T06:00:02.770Z,22.20
2018-07-05T06:02:42.280Z,22.30
2018-07-05T06:05:22.025Z,22.40
2018-07-05T06:08:01.603Z,22.60
2018-07-05T06:10:41.032Z,22.70
2018-07-05T06:13:20.597Z,22.60
2018-07-05T06:16:00.316Z,22.60
2018-07-05T06:18:39.752Z,22.60
2018-07-05T06:21:19.348Z,22.60
2018-07-05T06:23:58.890Z,22.70
2018-07-05T06:26:38.516Z,22.90
2018-07-05T06:29:17.920Z,23.00
2018-07-05T06:34:31.127Z,23.30
2018-07-05T06:37:10.575Z,23.40
2018-07-05T06:39:50.256Z,23.40
2018-07-05T06:42:29.857Z,23.60
2018-07-05T06:45:09.363Z,23.60
2018-07-05T06:47:48.902Z,23.80
2018-07-05T06:50:28.338Z,24.00
2018-07-05T06:53:08.013Z,24.30
2018-07-05T06:55:47.675Z,24.60
2018-07-05T07:06:08.115Z,26.80
2018-07-05T07:08:47.547Z,26.90
2018-07-05T07:11:27.256Z,26.80
2018-07-05T07:14:06.735Z,27.00
2018-07-05T07:16:46.263Z,27.00
2018-07-05T07:19:25.723Z,27.20
2018-07-05T07:22:05.429Z,27.40
2018-07-05T07:24:45.033Z,27.60
2018-07-05T07:27:24.467Z,28.00
2018-07-05T07:30:04.076Z,28.60
2018-07-05T07:35:17.073Z,29.60
2018-07-05T07:37:56.545Z,30.50
2018-07-05T07:40:36.411Z,32.60
2018-07-05T07:43:03.721Z,35.10
2018-07-05T07:45:31.071Z,36.50
2018-07-05T07:47:58.277Z,36.70
2018-07-05T07:50:25.541Z,37.20
2018-07-05T07:52:52.815Z,37.90
2018-07-05T07:55:20.130Z,39.40
2018-07-05T07:57:47.481Z,39.70
2018-07-05T08:00:14.816Z,39.90
2018-07-05T08:02:42.174Z,39.60
2018-07-05T08:05:09.459Z,39.00
2018-07-05T08:07:36.828Z,37.50
2018-07-05T08:10:04.099Z,35.20
2018-07-05T08:12:31.475Z,33.70
2018-07-05T08:14:58.772Z,32.80
2018-07-05T08:17:26.112Z,32.40
2018-07-05T08:19:53.409Z,32.10
2018-07-05T08:22:20.685Z,31.80
2018-07-05T08:24:48.008Z,31.60
2018-07-05T08:27:15.265Z,31.40
2018-07-05T08:29:42.573Z,31.20
2018-07-05T08:32:09.839Z,31.10
2018-07-05T08:34:37.120Z,31.10
2018-07-05T08:37:04.390Z,31.20
2018-07-05T08:39:31.755Z,31.40
2018-07-05T08:41:59.023Z,31.60
2018-07-05T08:44:26.309Z,31.80
2018-07-05T08:46:53.586Z,32.20
2018-07-05T08:49:20.871Z,32.40
2018-07-05T08:51:48.151Z,32.20
2018-07-05T08:54:15.474Z,31.90
2018-07-05T08:56:42.775Z,31.80
2018-07-05T08:59:10.068Z,32.10
2018-07-05T09:01:37.348Z,33.60
2018-07-05T09:04:04.624Z,34.10
2018-07-05T09:06:31.876Z,33.90
2018-07-05T09:08:59.175Z,33.40
2018-07-05T09:13:54.000Z,32.10
2018-07-05T09:16:21.262Z,31.60
2018-07-05T09:18:48.556Z,31.30
2018-07-05T09:21:15.819Z,31.30
2018-07-05T09:23:43.095Z,31.60
2018-07-05T09:26:10.408Z,32.10
2018-07-05T09:28:37.687Z,32.90
2018-07-05T09:31:04.990Z,33.10
2018-07-05T09:33:32.329Z,33.00
2018-07-05T09:36:00.163Z,32.60
2018-07-05T09:38:27.430Z,31.90
2018-07-05T09:40:54.714Z,31.30
2018-07-05T09:43:21.989Z,30.80
2018-07-05T09:45:49.263Z,30.50
2018-07-05T09:48:16.574Z,30.10
2018-07-05T09:50:44.000Z,29.90
2018-07-05T09:53:11.312Z,29.60
2018-07-05T09:55:38.614Z,29.50
2018-07-05T09:58:05.929Z,29.60
2018-07-05T10:00:38.730Z,29.70
2018-07-05T10:03:06.088Z,29.90
2018-07-05T10:05:33.382Z,30.00
2018-07-05T10:08:01.969Z,30.10
2018-07-05T10:10:29.310Z,30.30
2018-07-05T10:12:56.626Z,30.60
2018-07-05T10:15:23.947Z,30.80
2018-07-05T10:17:51.209Z,31.10
2018-07-05T10:20:18.522Z,31.70
2018-07-05T10:22:47.589Z,32.40
2018-07-05T10:25:14.897Z,34.00
2018-07-05T10:27:42.163Z,34.90
2018-07-05T10:30:21.865Z,34.90
2018-07-05T10:33:01.527Z,34.60
2018-07-05T10:35:28.821Z,33.70
2018-07-05T10:37:58.385Z,33.10
2018-07-05T10:40:39.005Z,32.90
2018-07-05T10:43:18.697Z,32.80
2018-07-05T10:45:58.474Z,32.70
2018-07-05T10:48:38.187Z,33.10
2018-07-05T10:51:17.957Z,33.90
2018-07-05T10:56:31.290Z,35.50
2018-07-05T11:01:44.323Z,35.60
2018-07-05T11:04:23.755Z,35.60
2018-07-05T11:07:03.589Z,35.50
2018-07-05T11:09:43.049Z,35.50
2018-07-05T11:12:22.491Z,35.60
2018-07-05T11:15:01.981Z,35.60
2018-07-05T11:17:41.489Z,35.70
2018-07-05T11:20:21.896Z,35.80
2018-07-05T11:23:01.644Z,36.00
2018-07-05T11:25:41.377Z,36.00
2018-07-05T11:28:20.867Z,36.10
2018-07-05T11:31:00.371Z,35.90
2018-07-05T11:33:39.856Z,35.70
2018-07-05T11:36:19.421Z,35.50
2018-07-05T11:38:58.969Z,35.30
2018-07-05T11:41:38.549Z,34.80
2018-07-05T11:44:18.023Z,34.80
2018-07-05T11:46:57.630Z,34.90
2018-07-05T11:49:37.326Z,35.00
2018-07-05T11:52:17.064Z,34.70
2018-07-05T11:54:56.579Z,34.60
2018-07-05T11:57:36.174Z,34.40
2018-07-05T12:00:15.723Z,34.50
2018-07-05T12:02:55.295Z,34.70
2018-07-05T12:05:34.863Z,34.80
2018-07-05T12:08:14.344Z,34.90
2018-07-05T12:10:53.818Z,35.20
2018-07-05T12:13:33.331Z,35.10
2018-07-05T12:16:13.037Z,35.20
2018-07-05T12:18:52.603Z,34.90
2018-07-05T12:24:05.737Z,34.20
2018-07-05T12:26:45.481Z,34.10
2018-07-05T12:29:25.061Z,34.40
2018-07-05T12:32:04.489Z,34.80
2018-07-05T12:34:44.045Z,35.30
2018-07-05T12:37:23.724Z,35.30
2018-07-05T12:40:03.328Z,35.40
2018-07-05T12:42:43.009Z,35.30
2018-07-05T12:45:22.597Z,35.40
2018-07-05T12:48:02.127Z,35.40
2018-07-05T12:50:41.707Z,35.10
2018-07-05T12:53:21.282Z,34.60
2018-07-05T12:58:34.440Z,33.70
2018-07-05T13:01:14.161Z,33.30
2018-07-05T13:03:53.782Z,32.90
2018-07-05T13:06:33.476Z,32.50
2018-07-05T13:09:12.983Z,32.10
2018-07-05T13:11:52.488Z,32.20
2018-07-05T13:14:32.062Z,32.60
2018-07-05T13:17:11.540Z,33.00
2018-07-05T13:19:51.070Z,33.30
2018-07-05T13:22:30.642Z,33.30
2018-07-05T13:25:10.304Z,33.40
2018-07-05T13:27:49.841Z,33.20
2018-07-05T13:30:29.479Z,33.10
2018-07-05T13:33:09.294Z,33.30
2018-07-05T13:35:49.013Z,33.60
2018-07-05T13:38:28.822Z,33.70
2018-07-05T13:41:08.710Z,33.70
2018-07-05T13:46:22.305Z,33.60
2018-07-05T13:49:01.819Z,33.60
2018-07-05T13:51:41.372Z,33.50
2018-07-05T13:54:20.993Z,33.50
2018-07-05T13:57:06.351Z,33.40
2018-07-05T13:59:46.146Z,32.90
2018-07-05T14:02:26.045Z,32.20
2018-07-05T14:05:05.668Z,31.60
2018-07-05T14:07:45.324Z,31.50
2018-07-05T14:10:25.112Z,31.80
2018-07-05T14:13:04.772Z,32.10
2018-07-05T14:15:44.426Z,32.30
2018-07-05T14:18:24.092Z,32.40
2018-07-05T14:21:03.546Z,32.10
2018-07-05T14:23:43.108Z,32.00
2018-07-05T14:26:22.817Z,31.90
2018-07-05T14:31:36.194Z,32.10
2018-07-05T14:34:15.580Z,32.30
2018-07-05T14:39:28.549Z,32.40
2018-07-05T14:42:07.992Z,32.30
2018-07-05T14:44:47.607Z,32.30
2018-07-05T14:47:27.365Z,32.10
2018-07-05T14:50:06.929Z,31.50
2018-07-05T14:52:46.618Z,31.00
2018-07-05T14:55:26.269Z,31.00
2018-07-05T14:58:05.879Z,31.30
2018-07-05T15:00:45.607Z,31.60
2018-07-05T15:03:25.239Z,31.80
2018-07-05T15:06:04.795Z,31.70
2018-07-05T15:08:44.636Z,31.60
2018-07-05T15:11:24.126Z,31.70
2018-07-05T15:14:03.657Z,31.80
2018-07-05T15:16:43.172Z,31.80
2018-07-05T15:19:22.821Z,31.70
2018-07-05T15:22:02.367Z,31.50
2018-07-05T15:24:41.865Z,31.30
2018-07-05T15:27:21.315Z,31.30
2018-07-05T15:30:00.846Z,31.30
2018-07-05T15:32:40.432Z,31.40
2018-07-05T15:37:53.466Z,31.50
2018-07-05T15:43:06.699Z,31.40
2018-07-05T15:45:46.354Z,31.30
2018-07-05T15:48:26.448Z,31.30
2018-07-05T15:51:09.862Z,31.20
2018-07-05T15:53:49.528Z,31.20
2018-07-05T15:56:29.144Z,31.20
2018-07-05T15:59:08.741Z,31.30
2018-07-05T16:01:49.724Z,31.30
2018-07-05T16:04:29.251Z,31.20
2018-07-05T16:07:08.834Z,31.00
2018-07-05T16:09:48.331Z,30.90
2018-07-05T16:12:27.911Z,30.90
2018-07-05T16:15:07.438Z,30.80
2018-07-05T16:20:20.516Z,30.60
2018-07-05T16:23:00.047Z,30.60
2018-07-05T16:25:39.777Z,30.60
2018-07-05T16:28:19.349Z,30.70
2018-07-05T16:30:58.768Z,30.70
2018-07-05T16:33:38.308Z,30.60
2018-07-05T16:36:17.804Z,30.60
2018-07-05T16:38:57.339Z,30.50
2018-07-05T16:41:36.912Z,30.50
2018-07-05T16:44:16.930Z,30.40
2018-07-05T16:49:30.266Z,30.10
2018-07-05T16:54:43.501Z,29.80
2018-07-05T16:57:23.188Z,29.70
2018-07-05T17:00:02.757Z,29.70
2018-07-05T17:02:42.174Z,29.60
2018-07-05T17:05:21.710Z,29.50
2018-07-05T17:08:01.313Z,29.40
2018-07-05T17:10:40.881Z,29.20
2018-07-05T17:13:20.352Z,29.10
2018-07-05T17:16:00.395Z,29.00
2018-07-05T17:18:39.957Z,29.00
2018-07-05T17:21:19.361Z,29.00
2018-07-05T17:23:58.868Z,28.90
2018-07-05T17:26:38.501Z,28.90
2018-07-05T17:29:18.000Z,28.80
2018-07-05T17:31:57.480Z,28.70
2018-07-05T17:34:37.180Z,28.70
2018-07-05T17:37:16.698Z,28.70
2018-07-05T17:39:56.272Z,28.60
2018-07-05T17:42:35.998Z,28.50
2018-07-05T17:45:15.786Z,28.40
2018-07-05T17:47:55.343Z,28.30
2018-07-05T17:50:34.877Z,28.30
2018-07-05T17:53:14.492Z,28.20
2018-07-05T17:55:54.673Z,28.20
2018-07-05T18:01:07.800Z,28.00
2018-07-05T18:03:47.349Z,27.90
2018-07-05T18:06:26.943Z,27.80
2018-07-05T18:09:06.558Z,27.80
2018-07-05T18:11:46.150Z,27.70
2018-07-05T18:14:25.804Z,27.60
2018-07-05T18:17:05.320Z,27.60
2018-07-05T18:19:44.777Z,27.60
2018-07-05T18:22:24.318Z,27.50
2018-07-05T18:25:07.327Z,27.50
2018-07-05T18:27:47.084Z,27.40
2018-07-05T18:30:26.630Z,27.40
2018-07-05T18:33:06.225Z,27.20
2018-07-05T18:35:45.647Z,27.20
2018-07-05T18:38:24.991Z,27.00
2018-07-05T18:43:38.133Z,26.90
2018-07-05T18:46:17.758Z,26.90
2018-07-05T18:48:57.294Z,26.80
2018-07-05T18:51:36.786Z,26.70
2018-07-05T18:54:16.280Z,26.70
2018-07-05T18:56:55.970Z,26.50
2018-07-05T18:59:36.664Z,26.40
2018-07-05T19:02:16.249Z,26.40
2018-07-05T19:04:55.786Z,26.30
2018-07-05T19:07:35.315Z,26.20
2018-07-05T19:10:14.846Z,26.10
2018-07-05T19:12:54.461Z,26.00
2018-07-05T19:15:33.914Z,25.90
2018-07-05T19:18:13.386Z,25.80
2018-07-05T19:20:53.011Z,25.70
2018-07-05T19:23:32.701Z,25.60
2018-07-05T19:28:46.115Z,25.40
2018-07-05T19:31:25.606Z,25.30
2018-07-05T19:34:05.026Z,25.20
2018-07-05T19:36:44.562Z,25.10
2018-07-05T19:39:24.261Z,25.00
2018-07-05T19:42:03.898Z,24.90
2018-07-05T19:44:44.628Z,24.80
2018-07-05T19:47:24.227Z,24.70
2018-07-05T19:50:03.847Z,24.60
2018-07-05T19:52:43.337Z,24.50
2018-07-05T19:55:23.137Z,24.40
2018-07-05T19:58:02.693Z,24.40
2018-07-05T20:00:42.236Z,24.40
2018-07-05T20:03:21.724Z,24.30
2018-07-05T20:06:01.358Z,24.20
2018-07-05T20:08:40.875Z,24.20
2018-07-05T20:11:20.505Z,24.10
2018-07-05T20:13:59.921Z,24.00
2018-07-05T20:16:40.024Z,23.70
2018-07-05T20:19:19.532Z,23.60
2018-07-05T20:21:59.008Z,23.60
2018-07-05T20:24:40.878Z,23.60
2018-07-05T20:27:20.372Z,23.60
2018-07-05T20:30:00.098Z,23.60
2018-07-05T20:32:39.674Z,23.50
2018-07-05T20:35:19.336Z,23.30
2018-07-05T20:37:58.932Z,23.20
2018-07-05T20:40:38.530Z,23.20
2018-07-05T20:43:18.021Z,23.10
2018-07-05T20:45:57.456Z,23.10
2018-07-05T20:48:36.996Z,22.90
2018-07-05T20:51:16.615Z,22.70
2018-07-05T20:53:56.077Z,22.60
2018-07-05T20:56:35.501Z,22.60
2018-07-05T20:59:15.085Z,22.70
2018-07-05T21:01:54.625Z,22.60
2018-07-05T21:07:07.728Z,22.40
2018-07-05T21:09:47.419Z,22.20
2018-07-05T21:15:00.798Z,22.30
2018-07-05T21:17:40.322Z,22.20
2018-07-05T21:20:19.781Z,22.20
2018-07-05T21:22:59.341Z,22.20
2018-07-05T21:25:40.367Z,22.20
2018-07-05T21:28:19.952Z,22.10
2018-07-05T21:30:59.500Z,22.00
2018-07-05T21:33:39.211Z,21.90
2018-07-05T21:36:18.829Z,21.70
2018-07-05T21:38:58.484Z,21.40
2018-07-05T21:41:38.148Z,21.40
2018-07-05T21:44:17.762Z,21.40
2018-07-05T21:46:57.370Z,21.40
2018-07-05T21:52:10.572Z,21.50
2018-07-05T21:54:50.074Z,21.60
2018-07-05T21:57:29.670Z,21.60
2018-07-05T22:00:09.363Z,21.60
2018-07-05T22:02:48.939Z,21.60
2018-07-05T22:05:28.592Z,21.60
2018-07-05T22:08:08.224Z,21.60
2018-07-05T22:10:47.660Z,21.70
2018-07-05T22:13:28.314Z,21.70
2018-07-05T22:16:07.822Z,21.70
2018-07-05T22:21:26.441Z,21.50
2018-07-05T22:24:11.480Z,21.50
2018-07-05T22:26:51.107Z,21.40
2018-07-05T22:29:36.188Z,21.30
2018-07-05T22:32:17.153Z,21.30
2018-07-05T22:34:56.740Z,21.20
2018-07-05T22:37:36.293Z,21.10
2018-07-05T22:40:15.751Z,21.00
2018-07-05T22:45:28.769Z,20.80
2018-07-05T22:48:08.386Z,20.80
2018-07-05T22:50:47.963Z,20.80
2018-07-05T22:53:27.504Z,20.70
2018-07-05T22:56:07.097Z,20.70
2018-07-05T22:58:46.836Z,20.60
2018-07-05T23:01:26.646Z,20.60
2018-07-05T23:04:06.171Z,20.60
2018-07-05T23:06:45.724Z,20.50
2018-07-05T23:09:25.413Z,20.50
2018-07-05T23:12:05.032Z,20.40
2018-07-05T23:14:44.572Z,20.30
2018-07-05T23:17:24.975Z,20.20
2018-07-05T23:20:04.465Z,20.10
2018-07-05T23:22:43.917Z,20.10
2018-07-05T23:25:23.355Z,20.00
2018-07-05T23:28:03.099Z,20.00
2018-07-05T23:30:43.528Z,19.90
2018-07-05T23:33:23.141Z,19.80
2018-07-05T23:36:02.730Z,19.80
2018-07-05T23:38:42.433Z,19.70
2018-07-05T23:41:21.965Z,19.80
2018-07-05T23:44:01.524Z,19.70
2018-07-05T23:46:41.045Z,19.60
2018-07-05T23:49:20.545Z,19.70
2018-07-05T23:51:59.957Z,19.70
2018-07-05T23:57:13.074Z,19.50
2018-07-05T23:59:52.462Z,19.50
